• Join FlightAware (Why Join?)
  • Login
  • US Flag 
01:40PM EDT


 

Airport Tracker/Info


-or-


 

Live Flight TrackerFlight Track Log ✈ SWA2975 ✈ 25-Jun-2013 ✈ KSLC - KMDW

Flight Track Log - Related Links

Times and Time Zones

All times are in EDT time to prevent confusion due to time zone crossing. See the SWA2975 flight status page for this flight to view local times or setup timezone preferences in your user account.

Time Position Orientation Groundspeed Altitude Reporting Facility
EDT Latitude Longitude Course Direction KTS MPH feet Rate Location/Type
06:34PM 40.8280 -111.9650 359° North 203 234 5,600  Level FlightAware
06:35PM 40.8560 -111.9700 352° North 237 273 6,200 1,620 Climbing FlightAware
06:35PM 40.8900 -111.9740 355° North 252 290 7,200 2,160 Climbing FlightAware
06:36PM 40.9240 -111.9790 354° North 267 307 8,300 2,100 Climbing FlightAware
06:36PM 40.9610 -111.9840 354° North 288 331 9,200 1,980 Climbing FlightAware
06:36PM 40.9800 -111.9870 353° North 299 344 9,700 2,280 Climbing FlightAware
06:37PM 41.0320 -112.0000 349° North 317 365 11,200 2,340 Climbing FlightAware
06:38PM 41.0750 -111.9640 32° Northeast 331 381 12,600 2,280 Climbing FlightAware
06:38PM 41.0810 -111.9410 71° East 336 387 13,000 1,260 Climbing FlightAware
06:38PM 41.0800 -111.9070 92° East 348 400 13,200 1,500 Climbing FlightAware
06:39PM 41.0630 -111.8190 104° East 379 436 14,400 2,040 Climbing FlightAware
06:39PM 41.0460 -111.7220 103° East 395 455 16,000 1,920 Climbing FlightAware
06:40PM 41.0310 -111.6190 101° East 419 482 17,200 1,860 Climbing FlightAware
06:41PM 41.0410 -111.5090 83° East 428 493 18,700 1,620 Climbing FlightAware
06:42PM 41.0730 -111.3790 72° East 432 497 19,900 720 Climbing FlightAware
06:42PM 41.0910 -111.3020 73° East 432 497 19,900  Level FlightAware
06:43PM 41.1170 -111.1990 71° East 432 497 19,900  Level FlightAware
06:44PM 41.1350 -111.1220 73° East 432 497 19,900  Level FlightAware
06:45PM 41.1610 -111.0190 71° East 432 497 19,900  Level FlightAware
06:45PM 41.1800 -110.9410 72° East 432 497 19,900 4,920 Level FlightAware
06:46PM 41.2317 -110.6711 72° East 480 552 27,400 4,380 Climbing Salt Lake Center
06:47PM 41.2703 -110.5036 73° East 494 568 28,500 1,200 Climbing Salt Lake Center
06:48PM 41.3142 -110.3036 74° East 504 580 29,900 1,260 Climbing Salt Lake Center
06:49PM 41.3533 -110.1300 73° East 511 588 31,100 1,200 Climbing Salt Lake Center
06:50PM 41.3900 -109.9572 74° East 509 586 32,400 1,200 Climbing Salt Lake Center
06:51PM 41.4328 -109.7569 74° East 504 580 33,700 1,140 Climbing Salt Lake Center
06:52PM 41.4700 -109.5853 74° East 503 579 34,800 1,020 Climbing Salt Lake Center
06:53PM 41.5133 -109.3858 74° East 499 574 35,900 900 Climbing Salt Lake Center
06:54PM 41.5514 -109.2128 74° East 499 574 36,700 480 Climbing Salt Lake Center
06:55PM 41.5867 -109.0358 75° East 502 578 37,000 120 Climbing Salt Lake Center
06:56PM 41.6056 -108.8283 83° East 498 573 37,000  Level Salt Lake Center
06:57PM 41.6194 -108.6522 84° East 497 572 37,000  Level Salt Lake Center
06:58PM 41.6336 -108.4461 85° East 498 573 37,000  Level Salt Lake Center
06:59PM 41.6444 -108.2972 84° East 497 572 37,000  Level Denver Center
07:00PM 41.6600 -108.0939 84° East 498 573 37,000  Level Salt Lake Center
07:02PM 41.6744 -107.8867 85° East 500 575 37,000  Level Salt Lake Center
07:03PM 41.6864 -107.7100 85° East 500 575 37,000  Level Salt Lake Center
07:03PM 41.6981 -107.5325 85° East 497 572 37,000  Level Denver Center
07:09PM 41.7680 -106.4050 85° East 497 572 37,000  Level FlightAware
07:10PM 41.7750 -106.2620 86° East 498 573 37,000  Level FlightAware
07:11PM 41.7830 -106.1230 86° East 499 574 37,000  Level FlightAware
07:12PM 41.7900 -105.9870 86° East 500 575 37,000  Level FlightAware
07:12PM 41.7970 -105.8560 86° East 500 575 37,000  Level FlightAware
07:13PM 41.8040 -105.7200 86° East 500 575 37,000  Level FlightAware
07:14PM 41.8100 -105.6100 86° East 500 575 37,000  Level FlightAware
07:15PM 41.8180 -105.4370 86° East 501 577 37,000  Level FlightAware
07:15PM 41.8160 -105.2930 91° East 502 578 37,000  Level FlightAware
07:16PM 41.8120 -105.1730 93° East 502 578 37,000  Level FlightAware
07:17PM 41.8080 -105.0620 93° East 502 578 37,000  Level FlightAware
07:18PM 41.8020 -104.9060 93° East 501 577 37,000  Level FlightAware
07:18PM 41.7960 -104.7370 93° East 502 578 37,000  Level FlightAware
07:19PM 41.7910 -104.6040 93° East 500 575 37,000  Level FlightAware
07:20PM 41.7860 -104.4750 93° East 500 575 37,000  Level FlightAware
07:21PM 41.7810 -104.3460 93° East 501 577 37,000  Level FlightAware
07:21PM 41.7760 -104.2240 93° East 500 575 37,000  Level FlightAware
07:22PM 41.7700 -104.0850 93° East 500 575 37,000  Level FlightAware
07:23PM 41.7640 -103.9550 93° East 500 575 37,000  Level FlightAware
07:23PM 41.7580 -103.8270 94° East 499 574 37,000  Level FlightAware
07:24PM 41.7520 -103.6930 93° East 500 575 37,000  Level FlightAware
07:25PM 41.7460 -103.5680 94° East 500 575 37,000  Level FlightAware
07:25PM 41.7400 -103.4400 94° East 502 578 37,000  Level FlightAware
07:26PM 41.7330 -103.3030 94° East 501 577 37,000  Level FlightAware
07:27PM 41.7260 -103.1750 94° East 500 575 37,000  Level FlightAware
07:28PM 41.7180 -103.0170 94° East 500 575 37,000  Level FlightAware
07:28PM 41.7130 -102.9220 94° East 500 575 37,000  Level FlightAware
07:29PM 41.7060 -102.7960 94° East 500 575 37,000  Level FlightAware
07:30PM 41.6960 -102.6170 94° East 503 579 37,000  Level FlightAware
07:31PM 41.6880 -102.4830 95° East 503 579 37,000  Level FlightAware
07:32PM 41.6790 -102.3190 94° East 504 580 37,000  Level FlightAware
07:32PM 41.6750 -102.2290 93° East 504 580 37,000  Level FlightAware
07:33PM 41.6680 -102.0970 94° East 504 580 37,000  Level FlightAware
07:34PM 41.6570 -101.9390 95° East 503 579 37,000  Level FlightAware
07:34PM 41.6510 -101.8390 95° East 503 579 37,000  Level FlightAware
07:35PM 41.6450 -101.7120 94° East 503 579 37,000  Level FlightAware
07:36PM 41.6400 -101.6170 94° East 503 579 37,000  Level FlightAware
07:37PM 41.6330 -101.4880 94° East 503 579 37,000  Level FlightAware
07:37PM 41.6280 -101.3930 94° East 503 579 37,000  Level FlightAware
07:38PM 41.6220 -101.2710 94° East 503 579 37,000  Level FlightAware
07:38PM 41.6170 -101.1760 94° East 503 579 37,000  Level FlightAware
07:39PM 41.6100 -101.0500 94° East 503 579 37,000  Level FlightAware
07:40PM 41.6050 -100.9490 94° East 503 579 37,000  Level FlightAware
07:41PM 41.5980 -100.8280 94° East 503 579 37,000  Level FlightAware
07:41PM 41.5930 -100.7330 94° East 503 579 37,000  Level FlightAware
07:42PM 41.5870 -100.6040 94° East 503 579 37,000  Level FlightAware
07:43PM 41.5820 -100.5090 94° East 503 579 37,000  Level FlightAware
07:44PM 41.5242 -100.0575 94° East 498 573 37,000  Level Minneapolis Center
07:45PM 41.5094 -99.8739 96° East 498 573 37,000  Level Minneapolis Center
07:46PM 41.4942 -99.6894 96° East 497 572 37,000  Level Denver Center
07:52PM 41.4570 -98.5460 96° East 502 578 37,000  Level FlightAware
07:53PM 41.4580 -98.4310 89° East 502 578 37,000  Level FlightAware
07:53PM 41.4600 -98.3280 88° East 502 578 37,000  Level FlightAware
07:54PM 41.4590 -98.1620 90° East 508 585 37,000  Level FlightAware
07:55PM 41.4590 -98.0450 90° East 509 586 37,000  Level FlightAware
07:55PM 41.4590 -97.9210 90° East 510 587 37,000  Level FlightAware
07:56PM 41.4590 -97.7640 90° East 513 590 37,000  Level FlightAware
07:57PM 41.4580 -97.6390 91° East 511 588 37,000  Level FlightAware
07:58PM 41.4580 -97.5010 90° East 508 585 37,000  Level FlightAware
07:58PM 41.4580 -97.3700 90° East 508 585 37,000  Level FlightAware
07:59PM 41.4570 -97.2400 91° East 508 585 37,000  Level FlightAware
08:00PM 41.4480 -97.1130 95° East 512 589 37,000  Level FlightAware
08:00PM 41.4150 -96.9960 111° Southeast 512 589 37,000  Level FlightAware
08:01PM 41.3490 -96.8780 127° Southeast 507 583 37,000  Level FlightAware
08:02PM 41.2930 -96.7790 127° Southeast 494 568 37,000  Level FlightAware
08:03PM 41.2320 -96.6730 127° Southeast 493 567 37,000  Level FlightAware
08:03PM 41.1780 -96.5790 127° Southeast 492 566 37,000  Level FlightAware
08:04PM 41.1190 -96.4760 127° Southeast 493 567 37,000  Level FlightAware
08:05PM 41.0580 -96.3700 127° Southeast 500 575 37,000  Level FlightAware
08:05PM 41.0010 -96.2710 127° Southeast 501 577 37,000  Level FlightAware
08:06PM 40.9470 -96.1780 128° Southeast 501 577 37,000  Level FlightAware
08:07PM 40.8810 -96.0620 127° Southeast 502 578 37,000  Level FlightAware
08:07PM 40.8250 -95.9640 127° Southeast 502 578 37,000  Level FlightAware
08:08PM 40.7630 -95.8560 127° Southeast 502 578 37,000  Level FlightAware
08:09PM 40.7090 -95.7600 127° Southeast 501 577 37,000  Level FlightAware
08:09PM 40.6520 -95.6610 127° Southeast 500 575 37,000  Level FlightAware
08:10PM 40.5980 -95.5640 126° Southeast 499 574 37,000  Level FlightAware
08:11PM 40.5200 -95.4100 124° Southeast 497 572 37,000  Level FlightAware
08:12PM 40.5210 -95.2910 89° East 490 564 37,000  Level FlightAware
08:13PM 40.5390 -95.1660 79° East 488 562 37,000  Level FlightAware
08:13PM 40.5540 -95.0520 80° East 488 562 37,000  Level FlightAware
08:14PM 40.5720 -94.9160 80° East 486 559 37,000  Level FlightAware
08:15PM 40.5870 -94.8040 80° East 488 562 37,000  Level FlightAware
08:15PM 40.6050 -94.6700 80° East 491 565 37,000  Level FlightAware
08:16PM 40.6200 -94.5520 80° East 490 564 37,000  Level FlightAware
08:17PM 40.6410 -94.3880 80° East 492 566 37,000  Level FlightAware
08:18PM 40.6630 -94.2160 80° East 492 566 37,000  Level FlightAware
08:19PM 40.6780 -94.1020 80° East 493 567 37,000  Level FlightAware
08:19PM 40.6920 -93.9870 81° East 495 570 37,000  Level FlightAware
08:20PM 40.7090 -93.8560 80° East 496 571 37,000  Level FlightAware
08:21PM 40.7240 -93.7350 81° East 496 571 37,000  Level FlightAware
08:22PM 40.7460 -93.5580 81° East 496 571 37,000  Level FlightAware
08:22PM 40.7620 -93.4270 81° East 497 572 37,000  Level FlightAware
08:23PM 40.7770 -93.3050 81° East 498 573 37,000  Level FlightAware
08:24PM 40.7970 -93.1380 81° East 499 574 37,000  Level FlightAware
08:25PM 40.8110 -93.0110 82° East 501 577 37,000  Level FlightAware
08:25PM 40.8260 -92.8830 81° East 502 578 37,000 -420 Level FlightAware
08:26PM 40.8400 -92.7640 81° East 502 578 36,500 -840 Descending FlightAware
08:27PM 40.8540 -92.6440 81° East 500 575 35,900 -1,020 Descending FlightAware
08:27PM 40.8690 -92.5030 82° East 500 575 35,100 -1,020 Descending FlightAware
08:28PM 40.8840 -92.3730 81° East 498 573 34,400 -960 Descending FlightAware
08:29PM 40.8980 -92.2520 81° East 499 574 33,800 -960 Descending FlightAware
08:30PM 40.9100 -92.1380 82° East 501 577 33,200 -960 Descending FlightAware
08:30PM 40.9250 -92.0030 82° East 498 573 32,500 -960 Descending FlightAware
08:31PM 40.9390 -91.8730 82° East 496 571 31,800 -1,020 Descending FlightAware
08:32PM 40.9520 -91.7450 82° East 490 564 31,100 -1,020 Descending FlightAware
08:32PM 40.9660 -91.6180 82° East 485 558 30,400 -1,020 Descending FlightAware
08:33PM 40.9770 -91.5070 82° East 485 558 29,700 -1,020 Descending FlightAware
08:34PM 40.9890 -91.3870 82° East 477 549 29,100 -540 Descending FlightAware
08:34PM 41.0020 -91.2690 82° East 476 548 29,000 -120 Descending FlightAware
08:35PM 41.0140 -91.1420 83° East 476 548 29,000  Level FlightAware
08:36PM 41.0260 -91.0240 82° East 476 548 29,000 -360 Level FlightAware
08:37PM 41.0390 -90.8950 82° East 472 543 28,500 -1,440 Descending FlightAware
08:37PM 41.0540 -90.7380 83° East 460 529 26,700 -2,040 Descending FlightAware
08:38PM 41.0660 -90.6180 82° East 453 521 25,200 -1,560 Descending FlightAware
08:39PM 41.0760 -90.5120 83° East 447 514 24,500 -900 Descending FlightAware
08:40PM 41.0880 -90.3900 83° East 435 501 24,000 -420 Descending FlightAware
08:40PM 41.0970 -90.2900 83° East 438 504 24,000 -540 Level FlightAware
08:41PM 41.1080 -90.1640 83° East 459 528 23,300 -1,020 Descending FlightAware
08:42PM 41.1180 -90.0520 83° East 447 514 22,600 -1,860 Descending FlightAware
08:42PM 41.1290 -89.9330 83° East 444 511 20,700 -2,520 Descending FlightAware
08:43PM 41.1390 -89.8220 83° East 432 497 19,000 -2,700 Descending FlightAware
08:44PM 41.1480 -89.7210 83° East 437 503 17,100 -2,700 Descending FlightAware
08:45PM 41.1590 -89.5980 83° East 425 489 15,200 -1,800 Descending FlightAware
08:45PM 41.1670 -89.4960 84° East 429 494 14,600 -1,020 Descending FlightAware
08:46PM 41.1750 -89.3850 84° East 426 490 13,900 -1,020 Descending FlightAware
08:47PM 41.2040 -89.2800 70° East 421 484 13,200 -960 Descending FlightAware
08:47PM 41.2360 -89.1930 64° Northeast 414 476 12,600 -1,020 Descending FlightAware
08:48PM 41.2720 -89.0920 65° Northeast 391 450 11,800 -1,080 Descending FlightAware
08:49PM 41.3040 -89.0030 64° Northeast 387 445 11,100 -1,140 Descending FlightAware
08:49PM 41.3370 -88.9110 64° Northeast 359 413 10,200 -1,320 Descending FlightAware
08:50PM 41.3450 -88.8880 65° Northeast 351 404 9,900 -780 Descending FlightAware
08:50PM 41.3650 -88.8330 64° Northeast 318 366 9,700 -780 Descending FlightAware
08:51PM 41.3810 -88.7870 65° Northeast 312 359 9,200 -1,200 Descending FlightAware
08:51PM 41.3990 -88.7390 63° Northeast 305 351 8,600 -1,260 Descending FlightAware
08:51PM 41.4080 -88.7130 65° Northeast 301 346 8,300 -1,260 Descending FlightAware
08:52PM 41.4220 -88.6730 65° Northeast 297 342 7,800 -1,260 Descending FlightAware
08:52PM 41.4320 -88.6440 65° Northeast 297 342 7,400 -1,560 Descending FlightAware
08:52PM 41.4470 -88.6020 65° Northeast 297 342 6,700 -1,620 Descending FlightAware
08:53PM 41.4570 -88.5740 65° Northeast 298 343 6,300 -840 Descending FlightAware
08:53PM 41.4720 -88.5290 66° East 297 342 6,100 -240 Descending FlightAware
08:54PM 41.4880 -88.4840 65° Northeast 293 337 6,100 -600 Level FlightAware
08:54PM 41.4960 -88.4580 68° East 295 339 5,700 -1,380 Descending FlightAware
08:54PM 41.5110 -88.4090 68° East 296 341 5,100 -720 Descending FlightAware
08:55PM 41.5230 -88.3680 69° East 296 341 5,100  Level FlightAware
08:55PM 41.5390 -88.3170 67° East 296 341 5,100  Level FlightAware
08:56PM 41.5530 -88.2670 69° East 297 342 5,100  Level FlightAware
08:56PM 41.5560 -88.2230 85° East 297 342 5,100  Level FlightAware
08:57PM 41.5590 -88.1650 86° East 298 343 5,100  Level FlightAware
08:57PM 41.5610 -88.1160 87° East 297 342 5,100  Level FlightAware
08:57PM 41.5630 -88.0940 83° East 297 342 5,100  Level FlightAware
08:58PM 41.5650 -88.0390 87° East 297 342 5,100  Level FlightAware
08:58PM 41.5670 -87.9880 87° East 295 339 5,100 -120 Level FlightAware
08:59PM 41.5700 -87.9350 86° East 291 335 5,000 -960 Descending FlightAware
08:59PM 41.5720 -87.8820 87° East 294 338 4,200 -1,440 Descending FlightAware
09:00PM 41.5740 -87.8340 87° East 290 334 3,700 -1,200 Descending FlightAware
09:00PM 41.5780 -87.8150 74° East 289 333 3,400 -960 Descending FlightAware
09:00PM 41.5920 -87.7700 67° East 288 331 3,100 -360 Descending FlightAware
09:01PM 41.6080 -87.7200 67° East 279 321 3,100  Level FlightAware
09:01PM 41.6210 -87.6790 67° East 252 290 3,100  Level FlightAware
09:02PM 41.6330 -87.6410 67° East 221 254 3,100  Level FlightAware
09:02PM 41.6480 -87.6100 57° Northeast 209 241 3,100  Level FlightAware
09:02PM 41.6570 -87.6070 14° North 202 232 3,100 -660 Level FlightAware
09:03PM 41.6820 -87.6120 352° North 196 226 2,700 -720 Descending FlightAware
09:03PM 41.6950 -87.6270 319° Northwest 185 213 2,600 -180 Descending FlightAware
09:04PM 41.7110 -87.6470 317° Northwest 173 199 2,600 -480 Level FlightAware
09:04PM 41.7250 -87.6680 312° West 176 203 2,200 -900 Descending FlightAware
09:05PM 41.7420 -87.6910 315° West 162 186 1,800 -900 Descending FlightAware
09:05PM 41.7550 -87.7100 313° West 149 171 1,400 -720 Descending FlightAware
09:06PM 41.7800 -87.7456 313° West 172 198 900 -600 Descending Chicago Center